Time;durP1;ratioP1;P1;durP2;ratioP2;P2;SDS_P1;SDS_P2;PMS_P1;PMS_P2;Temp;Humidity;BMP_temperature;BMP_pressure;BME280_temperature;BME280_humidity;BME280_pressure;Samples;Min_cycle;Max_cycle;Signal;HPM_P1;HPM_P2
2021/04/29 00:00:14;;;;;;;13.18;9.65;;;;;;;14.17;37.40;99968.00;4895301;28;124393;-73
2021/04/29 00:02:42;;;;;;;15.00;9.82;;;;;;;14.12;37.53;99959.50;4905270;28;123915;-73
2021/04/29 00:05:11;;;;;;;17.13;9.48;;;;;;;14.07;37.66;99956.34;4918055;28;114293;-72
2021/04/29 00:07:38;;;;;;;14.18;9.45;;;;;;;14.03;37.87;99965.50;4918346;28;117322;-73
2021/04/29 00:10:07;;;;;;;12.65;9.35;;;;;;;13.99;37.61;99964.03;4926354;28;123884;-73
2021/04/29 00:12:34;;;;;;;14.93;10.10;;;;;;;13.96;37.83;99964.28;4906046;28;123100;-73
2021/04/29 00:15:09;;;;;;;13.75;9.68;;;;;;;13.93;37.86;99965.34;4915636;28;114722;-73
2021/04/29 00:17:36;;;;;;;14.70;9.65;;;;;;;13.93;38.01;99961.81;4924047;28;113742;-73
2021/04/29 00:20:18;;;;;;;15.30;10.20;;;;;;;13.91;37.84;99963.75;4923647;28;123691;-73
2021/04/29 00:22:45;;;;;;;12.07;9.85;;;;;;;13.89;37.82;99960.34;4915023;28;124193;-73
2021/04/29 00:25:13;;;;;;;15.15;9.68;;;;;;;13.85;38.06;99957.06;4902995;28;113224;-73
2021/04/29 00:27:39;;;;;;;13.50;9.85;;;;;;;13.83;37.89;99959.84;4923701;28;114277;-73
2021/04/29 00:30:09;;;;;;;14.82;9.98;;;;;;;13.81;38.18;99961.75;4907558;28;122180;-73
2021/04/29 00:32:36;;;;;;;12.70;9.85;;;;;;;13.80;37.98;99953.88;4924274;28;124014;-73
2021/04/29 00:35:04;;;;;;;13.85;9.93;;;;;;;13.77;38.29;99944.31;4917336;28;114312;-73
2021/04/29 00:37:31;;;;;;;17.30;10.10;;;;;;;13.75;38.16;99935.59;4893183;28;112953;-73
2021/04/29 00:39:57;;;;;;;16.35;10.45;;;;;;;13.71;38.08;99939.44;4909802;28;125612;-73
2021/04/29 00:42:24;;;;;;;12.55;9.68;;;;;;;13.69;38.34;99945.81;4911156;28;121994;-74
2021/04/29 00:44:50;;;;;;;16.40;10.90;;;;;;;13.66;38.10;99944.25;4905737;28;115288;-73
2021/04/29 00:47:17;;;;;;;17.40;10.10;;;;;;;13.64;38.15;99943.50;4922739;28;115075;-73
2021/04/29 00:49:45;;;;;;;13.52;10.52;;;;;;;13.60;38.47;99936.72;4905976;28;124375;-72
2021/04/29 00:52:11;;;;;;;15.27;10.40;;;;;;;13.56;38.48;99936.09;4921293;28;123883;-72
2021/04/29 00:54:38;;;;;;;17.00;10.55;;;;;;;13.52;38.54;99939.06;4913775;28;113508;-73
2021/04/29 00:57:05;;;;;;;17.40;11.55;;;;;;;13.48;38.87;99938.44;4893936;28;112865;-73
2021/04/29 00:59:31;;;;;;;14.25;10.45;;;;;;;13.43;38.95;99936.13;4920565;28;124508;-73
2021/04/29 01:02:02;;;;;;;13.52;10.13;;;;;;;13.39;39.09;99939.97;4921775;28;124586;-73
2021/04/29 01:04:42;;;;;;;16.48;10.20;;;;;;;13.35;39.04;99941.09;4908591;28;112363;-73
2021/04/29 01:07:12;;;;;;;16.65;10.45;;;;;;;13.31;39.06;99944.13;4912075;28;114125;-73
2021/04/29 01:09:51;;;;;;;18.60;10.90;;;;;;;13.26;39.29;99939.09;4931080;28;124279;-73
2021/04/29 01:12:23;;;;;;;15.07;11.02;;;;;;;13.21;39.27;99949.22;4911248;28;123079;-72
2021/04/29 01:14:52;;;;;;;17.30;10.95;;;;;;;13.14;39.37;99956.75;4920530;28;113591;-72
2021/04/29 01:17:20;;;;;;;14.63;10.63;;;;;;;13.10;39.50;99960.59;4920252;28;113357;-73
2021/04/29 01:20:20;;;;;;;14.75;11.20;;;;;;;13.02;39.28;99958.47;4916524;28;124066;-72
2021/04/29 01:23:06;;;;;;;17.48;10.85;;;;;;;12.94;39.73;99968.78;4898620;28;122346;-73
2021/04/29 01:25:34;;;;;;;;;;;;;;;12.89;38.77;99967.41;4923917;28;114660;-73
2021/04/29 01:28:01;;;;;;;16.05;11.48;;;;;;;12.87;39.10;99970.16;4904313;28;114109;-73
2021/04/29 01:30:29;;;;;;;14.05;10.85;;;;;;;12.83;39.62;99969.50;4927745;28;124020;-73
2021/04/29 01:32:56;;;;;;;12.95;10.65;;;;;;;12.81;39.91;99970.59;4886989;28;123375;-73
2021/04/29 01:35:23;;;;;;;13.77;10.50;;;;;;;12.79;40.09;99967.16;4917778;28;115132;-73
2021/04/29 01:37:51;;;;;;;15.40;10.77;;;;;;;12.76;40.31;99972.69;4908838;28;114207;-72
2021/04/29 01:40:18;;;;;;;15.35;11.25;;;;;;;12.75;40.04;99973.63;4913821;28;122906;-73
2021/04/29 01:42:45;;;;;;;14.70;11.10;;;;;;;12.73;40.56;99975.56;4920752;28;123964;-73
2021/04/29 01:45:12;;;;;;;15.60;11.70;;;;;;;12.70;40.62;99973.13;4916954;28;114396;-72
2021/04/29 01:47:38;;;;;;;17.23;11.43;;;;;;;12.66;40.42;99973.31;4909444;28;113674;-73
2021/04/29 01:50:09;;;;;;;15.73;11.57;;;;;;;12.64;40.72;99969.91;4914391;28;124255;-73
2021/04/29 01:52:37;;;;;;;17.08;11.48;;;;;;;12.60;40.60;99979.06;4925146;28;123195;-73
2021/04/29 01:55:04;;;;;;;14.50;10.68;;;;;;;12.57;40.95;99989.88;4920424;28;114456;-73
2021/04/29 01:57:31;;;;;;;17.45;11.80;;;;;;;12.52;40.99;99997.28;4929103;28;113808;-73
2021/04/29 01:59:58;;;;;;;16.88;11.60;;;;;;;12.50;41.28;100004.50;4895453;28;122703;-73
2021/04/29 02:02:25;;;;;;;14.20;11.13;;;;;;;12.47;41.15;100004.75;4906758;28;123713;-73
2021/04/29 02:04:52;;;;;;;15.82;10.80;;;;;;;12.44;41.27;100004.94;4924072;28;114168;-71
2021/04/29 02:07:19;;;;;;;14.80;11.10;;;;;;;12.40;41.14;100014.06;4912104;28;113743;-71
2021/04/29 02:09:46;;;;;;;16.67;11.07;;;;;;;12.37;41.22;100024.88;4933696;28;124094;-71
2021/04/29 02:12:12;;;;;;;16.42;11.00;;;;;;;12.33;41.65;100023.38;4922096;28;124666;-71
2021/04/29 02:14:46;;;;;;;16.65;10.80;;;;;;;12.32;41.50;100022.53;4913414;28;112446;-71
2021/04/29 02:17:23;;;;;;;15.23;10.65;;;;;;;12.33;41.64;100028.69;4903061;28;113731;-71
2021/04/29 02:19:51;;;;;;;15.32;10.57;;;;;;;12.33;41.59;100024.22;4907609;28;123026;-72
2021/04/29 02:22:22;;;;;;;16.23;10.82;;;;;;;12.36;42.04;100028.50;4922074;28;123396;-71
2021/04/29 02:24:53;;;;;;;16.08;11.25;;;;;;;12.39;41.82;100028.28;4922598;28;115021;-70
2021/04/29 02:27:20;;;;;;;13.65;10.88;;;;;;;12.41;41.98;100026.38;4908477;28;115146;-71
2021/04/29 02:29:47;;;;;;;16.63;10.88;;;;;;;12.42;41.72;100017.47;4914035;28;123821;-71
2021/04/29 02:32:16;;;;;;;16.65;10.95;;;;;;;12.42;41.76;100006.84;4922010;28;124060;-71
2021/04/29 02:34:44;;;;;;;18.73;11.60;;;;;;;12.43;41.92;99997.91;4907926;28;113332;-72
2021/04/29 02:37:12;;;;;;;17.20;11.35;;;;;;;12.43;41.72;100003.22;4924047;28;113798;-71
2021/04/29 02:39:39;;;;;;;15.52;11.30;;;;;;;12.42;41.73;100006.84;4924637;28;124151;-70
2021/04/29 02:42:07;;;;;;;16.67;10.80;;;;;;;12.41;41.98;100010.44;4923316;28;124606;-71
2021/04/29 02:44:35;;;;;;;16.58;11.50;;;;;;;12.41;42.32;100013.97;4914066;28;113711;-71
2021/04/29 02:47:02;;;;;;;16.92;10.68;;;;;;;12.42;41.93;100001.53;4909735;28;113445;-71
2021/04/29 02:49:31;;;;;;;16.83;11.30;;;;;;;12.44;42.22;100002.28;4906899;28;124940;-71
2021/04/29 02:51:59;;;;;;;15.40;11.20;;;;;;;12.45;41.67;100001.31;4921930;28;124153;-71
2021/04/29 02:54:27;;;;;;;14.43;10.15;;;;;;;12.46;41.53;100001.22;4917918;28;114583;-71
2021/04/29 02:56:54;;;;;;;16.75;10.95;;;;;;;12.48;41.87;99998.47;4925804;28;113983;-71
2021/04/29 02:59:21;;;;;;;16.75;11.05;;;;;;;12.49;41.72;100002.81;4921384;28;123964;-71
2021/04/29 03:01:47;;;;;;;17.63;11.20;;;;;;;12.50;41.77;99996.53;4919913;28;124734;-71
2021/04/29 03:04:14;;;;;;;16.40;10.90;;;;;;;12.51;41.58;100008.00;4919757;28;114994;-71
2021/04/29 03:06:40;;;;;;;16.20;10.50;;;;;;;12.51;41.57;99990.28;4923179;28;114302;-71
2021/04/29 03:09:07;;;;;;;16.75;11.57;;;;;;;12.51;41.81;100000.91;4925023;28;123846;-71
2021/04/29 03:11:35;;;;;;;16.27;11.30;;;;;;;12.51;42.00;99994.72;4905410;28;124066;-71
2021/04/29 03:14:02;;;;;;;17.05;10.95;;;;;;;12.49;42.01;99989.56;4903072;28;114928;-71
2021/04/29 03:16:29;;;;;;;15.88;11.15;;;;;;;12.50;42.07;99988.56;4919181;28;114934;-71
2021/04/29 03:18:56;;;;;;;14.13;11.18;;;;;;;12.49;42.15;100000.16;4908825;28;122947;-71
2021/04/29 03:21:22;;;;;;;16.70;11.52;;;;;;;12.51;42.04;99990.28;4919557;28;123761;-71
2021/04/29 03:23:49;;;;;;;18.23;12.05;;;;;;;12.52;42.21;99994.63;4908800;28;114043;-71
2021/04/29 03:26:17;;;;;;;17.23;11.45;;;;;;;12.49;42.48;99986.91;4902542;28;112895;-71
2021/04/29 03:28:43;;;;;;;16.75;11.43;;;;;;;12.47;42.67;99978.19;4907234;28;124298;-71
2021/04/29 03:31:10;;;;;;;18.70;12.18;;;;;;;12.45;42.64;99974.75;4925010;28;123664;-71
2021/04/29 03:33:37;;;;;;;18.25;11.68;;;;;;;12.40;42.73;99963.59;4922286;28;112997;-71
2021/04/29 03:36:04;;;;;;;19.00;12.02;;;;;;;12.37;42.90;99966.44;4910274;28;112679;-71
2021/04/29 03:38:31;;;;;;;19.27;12.00;;;;;;;12.35;42.89;99973.66;4911661;28;124303;-71
2021/04/29 03:40:57;;;;;;;17.65;12.25;;;;;;;12.31;43.21;99969.53;4914676;28;124928;-71
2021/04/29 03:43:24;;;;;;;18.10;11.45;;;;;;;12.29;43.25;99952.84;4913896;28;113078;-72
2021/04/29 03:45:50;;;;;;;17.83;11.68;;;;;;;12.26;43.42;99954.75;4915727;28;114167;-71
2021/04/29 03:48:17;;;;;;;17.75;11.82;;;;;;;12.26;43.70;99944.13;4918413;28;123773;-71
2021/04/29 03:50:44;;;;;;;17.67;11.75;;;;;;;12.27;43.42;99956.44;4916558;28;123570;-71
2021/04/29 03:53:10;;;;;;;17.25;12.73;;;;;;;12.26;43.58;99949.44;4898250;28;113463;-71
2021/04/29 03:55:37;;;;;;;18.38;12.35;;;;;;;12.25;43.58;99953.03;4937114;23;114382;-65
2021/04/29 03:58:04;;;;;;;17.08;11.82;;;;;;;12.24;43.86;99983.22;4914298;28;124062;-64
2021/04/29 04:00:30;;;;;;;19.02;12.77;;;;;;;12.24;43.90;100004.44;4906441;28;124266;-64
2021/04/29 04:02:57;;;;;;;17.30;12.02;;;;;;;12.26;44.19;100012.28;4914238;28;115822;-65
2021/04/29 04:05:24;;;;;;;20.05;13.43;;;;;;;12.29;44.07;100005.94;4918269;28;115412;-65
2021/04/29 04:07:50;;;;;;;16.60;12.15;;;;;;;12.32;43.94;100006.59;4908291;28;124892;-65
2021/04/29 04:10:17;;;;;;;17.48;12.10;;;;;;;12.35;44.06;100005.53;4919937;28;124272;-65
2021/04/29 04:12:43;;;;;;;16.42;12.15;;;;;;;12.39;43.87;100002.56;4915549;28;113944;-65
2021/04/29 04:15:10;;;;;;;16.58;12.00;;;;;;;12.43;43.77;100003.22;4918449;28;114508;-65
2021/04/29 04:17:37;;;;;;;16.52;12.00;;;;;;;12.43;44.00;99997.91;4920344;28;123853;-65
2021/04/29 04:20:21;;;;;;;16.83;12.02;;;;;;;12.46;43.92;100003.03;4913776;28;124769;-64
2021/04/29 04:22:49;;;;;;;19.25;12.82;;;;;;;12.46;43.78;100005.69;4915171;28;114326;-64
2021/04/29 04:25:17;;;;;;;17.92;12.68;;;;;;;12.46;44.20;100014.50;4915507;28;114919;-64
2021/04/29 04:27:43;;;;;;;19.05;13.27;;;;;;;12.45;44.06;100011.94;4914865;28;124147;-64
2021/04/29 04:30:11;;;;;;;19.65;13.15;;;;;;;12.45;44.31;100006.63;4908906;28;124203;-65
2021/04/29 04:32:37;;;;;;;21.23;13.27;;;;;;;12.43;44.19;100013.84;4924374;28;114339;-65
2021/04/29 04:35:04;;;;;;;18.13;13.25;;;;;;;12.42;44.16;100012.16;4925151;28;114343;-65
2021/04/29 04:37:31;;;;;;;19.13;13.25;;;;;;;12.42;44.73;100017.47;4916225;28;124222;-65
2021/04/29 04:39:58;;;;;;;17.90;12.57;;;;;;;12.44;44.55;100020.88;4914986;28;123887;-65
2021/04/29 04:42:24;;;;;;;19.05;13.35;;;;;;;12.45;44.86;100022.56;4918618;28;114832;-65
2021/04/29 04:44:51;;;;;;;16.80;12.85;;;;;;;12.48;44.91;100026.81;4915213;28;114472;-64
2021/04/29 04:47:18;;;;;;;17.73;12.73;;;;;;;12.49;44.53;100024.06;4915951;28;124090;-63
2021/04/29 04:49:45;;;;;;;20.90;13.52;;;;;;;12.50;44.73;100031.06;4885122;28;123065;-65
2021/04/29 04:52:12;;;;;;;19.60;13.15;;;;;;;12.49;44.76;100034.69;4912180;28;114522;-64
2021/04/29 04:54:38;;;;;;;16.92;13.25;;;;;;;12.50;44.71;100036.38;4912407;28;115341;-64
2021/04/29 04:57:08;;;;;;;18.02;13.07;;;;;;;12.52;44.80;100034.47;4916195;28;124857;-64
2021/04/29 04:59:35;;;;;;;19.55;13.07;;;;;;;12.52;44.73;100034.47;4914918;28;124365;-63
2021/04/29 05:02:03;;;;;;;19.02;13.98;;;;;;;12.52;44.84;100034.47;4923687;28;114843;-64
2021/04/29 05:04:30;;;;;;;19.88;13.88;;;;;;;12.55;45.39;100039.59;4929100;28;113865;-64
2021/04/29 05:06:56;;;;;;;20.70;14.07;;;;;;;12.57;45.26;100048.31;4924810;28;124063;-64
2021/04/29 05:09:23;;;;;;;20.63;14.38;;;;;;;12.59;45.33;100046.41;4903657;28;125114;-64
2021/04/29 05:11:50;;;;;;;20.48;13.90;;;;;;;12.61;45.24;100051.63;4926913;28;114257;-64
2021/04/29 05:14:17;;;;;;;21.67;14.02;;;;;;;12.63;45.41;100050.56;4912804;28;113177;-64
2021/04/29 05:16:43;;;;;;;19.58;13.45;;;;;;;12.66;45.26;100053.03;4906474;28;124173;-64
2021/04/29 05:19:11;;;;;;;19.73;13.90;;;;;;;12.68;45.38;100054.72;4915107;28;124361;-64
2021/04/29 05:21:38;;;;;;;19.33;14.00;;;;;;;12.71;45.66;100055.34;4897595;28;113110;-64
2021/04/29 05:24:06;;;;;;;19.35;14.10;;;;;;;12.72;45.74;100056.22;4912214;28;114104;-64
2021/04/29 05:26:33;;;;;;;20.15;14.55;;;;;;;12.74;45.54;100055.16;4924824;28;123329;-63
2021/04/29 05:29:00;;;;;;;23.73;14.35;;;;;;;12.77;45.84;100054.09;4920092;28;123515;-65
2021/04/29 05:31:27;;;;;;;21.50;14.55;;;;;;;12.79;45.94;100062.81;4919624;28;114318;-64
2021/04/29 05:33:54;;;;;;;21.40;14.43;;;;;;;12.79;45.76;100058.38;4913100;28;112977;-65
2021/04/29 05:36:21;;;;;;;23.35;14.95;;;;;;;12.83;45.86;100064.34;4919220;28;124413;-64
2021/04/29 05:38:47;;;;;;;22.60;14.95;;;;;;;12.85;45.99;100062.44;4920791;28;124325;-64
2021/04/29 05:41:17;;;;;;;21.67;15.50;;;;;;;12.89;46.10;100058.59;4897931;28;114462;-63
2021/04/29 05:43:44;;;;;;;19.20;14.48;;;;;;;12.95;46.13;100067.97;4921420;28;115426;-65
2021/04/29 05:46:10;;;;;;;19.52;14.55;;;;;;;12.99;46.08;100067.66;4918070;28;124186;-64
2021/04/29 05:48:37;;;;;;;20.83;15.30;;;;;;;13.04;46.35;100077.97;4916358;28;124103;-64
2021/04/29 05:51:04;;;;;;;20.83;15.02;;;;;;;13.10;46.24;100082.03;4899101;28;113302;-64
2021/04/29 05:53:30;;;;;;;21.73;16.08;;;;;;;13.11;46.06;100078.41;4911317;28;114075;-64
2021/04/29 05:55:57;;;;;;;26.65;15.23;;;;;;;13.13;46.19;100082.69;4915526;28;124674;-64
2021/04/29 05:58:25;;;;;;;27.35;15.27;;;;;;;13.16;46.30;100081.59;4912734;28;124202;-64
2021/04/29 06:00:51;;;;;;;23.15;16.35;;;;;;;13.20;46.29;100085.75;4910117;28;114690;-64
2021/04/29 06:03:18;;;;;;;28.80;16.15;;;;;;;13.22;46.18;100086.50;4919154;28;113951;-64
2021/04/29 06:05:45;;;;;;;21.95;15.07;;;;;;;13.24;46.21;100079.25;4921223;28;124751;-64
2021/04/29 06:08:11;;;;;;;21.17;15.88;;;;;;;13.27;45.97;100081.72;4916756;28;124608;-65
2021/04/29 06:10:38;;;;;;;22.55;15.50;;;;;;;13.29;46.08;100082.47;4920606;28;114310;-64
2021/04/29 06:13:05;;;;;;;21.23;15.48;;;;;;;13.30;46.14;100073.56;4907343;28;114312;-64
2021/04/29 06:15:31;;;;;;;23.20;16.30;;;;;;;13.32;46.15;100070.81;4918524;28;124735;-63
2021/04/29 06:17:58;;;;;;;25.70;16.33;;;;;;;13.34;45.94;100067.09;4904872;28;123024;-63
2021/04/29 06:20:25;;;;;;;21.10;16.02;;;;;;;13.38;46.11;100076.56;4922001;28;114326;-64
2021/04/29 06:22:53;;;;;;;24.17;16.92;;;;;;;13.40;46.29;100079.94;4918375;28;114278;-64
2021/04/29 06:25:20;;;;;;;21.88;16.30;;;;;;;13.43;45.90;100085.06;4910366;28;124340;-64
2021/04/29 06:27:47;;;;;;;21.85;16.85;;;;;;;13.49;46.25;100093.59;4919037;28;122747;-63
2021/04/29 06:30:15;;;;;;;21.65;15.90;;;;;;;13.51;46.25;100086.34;4923596;28;115600;-64
2021/04/29 06:32:42;;;;;;;20.67;16.13;;;;;;;13.53;46.05;100084.44;4918159;28;114871;-64
2021/04/29 06:35:11;;;;;;;21.08;16.05;;;;;;;13.55;46.25;100088.69;4912666;28;123066;-64
2021/04/29 06:37:38;;;;;;;25.00;17.13;;;;;;;13.59;46.38;100089.31;4915489;28;123886;-64
2021/04/29 06:40:06;;;;;;;26.40;17.30;;;;;;;13.62;46.23;100083.81;4913499;28;115150;-64
2021/04/29 06:42:32;;;;;;;22.27;16.33;;;;;;;13.68;46.32;100094.00;4921081;28;114380;-64
2021/04/29 06:44:59;;;;;;;25.92;17.85;;;;;;;13.73;46.06;100091.88;4922405;28;124090;-64
2021/04/29 06:47:31;;;;;;;22.90;16.80;;;;;;;13.73;46.20;100097.19;4920924;28;123915;-64
2021/04/29 06:49:58;;;;;;;22.55;17.77;;;;;;;13.76;46.37;100102.28;4919973;28;114736;-64
2021/04/29 06:52:25;;;;;;;24.30;17.58;;;;;;;13.80;46.30;100103.78;4910308;28;114332;-64
2021/04/29 06:54:52;;;;;;;23.00;17.35;;;;;;;13.89;46.44;100106.75;4917176;28;124787;-64
2021/04/29 06:57:19;;;;;;;24.58;17.15;;;;;;;13.97;46.44;100109.72;4917212;28;124457;-64
2021/04/29 06:59:45;;;;;;;25.30;17.40;;;;;;;14.07;46.54;100104.59;4915448;28;114436;-64
2021/04/29 07:02:12;;;;;;;21.90;17.45;;;;;;;14.15;46.62;100103.09;4915267;28;114449;-64
2021/04/29 07:04:59;;;;;;;26.85;17.48;;;;;;;14.29;46.85;100114.56;4915126;28;124191;-64
2021/04/29 07:07:27;;;;;;;23.27;17.27;;;;;;;14.44;46.95;100113.44;4919725;28;122857;-64
2021/04/29 07:09:53;;;;;;;23.63;18.83;;;;;;;14.59;46.62;100116.81;4925181;28;114524;-64
2021/04/29 07:12:20;;;;;;;24.67;19.13;;;;;;;14.72;46.75;100116.78;4894928;28;114346;-64
2021/04/29 07:14:47;;;;;;;24.58;19.15;;;;;;;14.81;46.74;100120.59;4920063;28;124426;-65
2021/04/29 07:17:14;;;;;;;24.05;18.75;;;;;;;14.85;46.30;100112.22;4919176;28;124590;-64
2021/04/29 07:19:41;;;;;;;26.17;19.27;;;;;;;14.87;46.09;100107.63;4919321;28;115769;-64
2021/04/29 07:22:08;;;;;;;28.48;19.45;;;;;;;14.90;46.21;100115.41;4908787;28;114562;-64
2021/04/29 07:24:35;;;;;;;23.77;18.42;;;;;;;14.95;46.38;100118.56;4912557;28;123456;-65
2021/04/29 07:27:04;;;;;;;28.67;19.42;;;;;;;15.05;46.45;100117.88;4913840;28;123694;-64
2021/04/29 07:29:32;;;;;;;27.70;19.23;;;;;;;15.12;46.24;100119.13;4906509;28;114592;-64
2021/04/29 07:32:03;;;;;;;27.30;18.90;;;;;;;15.14;46.23;100117.19;4920342;28;114763;-64
2021/04/29 07:34:30;;;;;;;26.63;19.50;;;;;;;15.18;46.10;100124.84;4919309;28;124134;-64
2021/04/29 07:37:00;;;;;;;34.25;20.80;;;;;;;15.21;45.98;100118.41;4918838;28;124170;-65
2021/04/29 07:39:28;;;;;;;47.97;20.98;;;;;;;15.24;46.10;100123.53;4898414;28;114566;-65
2021/04/29 07:41:55;;;;;;;26.38;20.25;;;;;;;15.27;45.87;100123.28;4909537;28;113204;-65
2021/04/29 07:44:22;;;;;;;28.63;20.08;;;;;;;15.26;45.89;100132.25;4896349;28;123527;-64
2021/04/29 07:46:49;;;;;;;27.05;20.73;;;;;;;15.24;45.90;100128.88;4916351;28;124298;-64
2021/04/29 07:49:16;;;;;;;29.25;20.75;;;;;;;15.21;45.70;100134.41;4918716;28;114697;-64
2021/04/29 07:51:44;;;;;;;28.17;20.50;;;;;;;15.17;45.76;100130.28;4916429;28;114276;-64
2021/04/29 07:54:13;;;;;;;25.50;19.35;;;;;;;15.15;45.64;100140.22;4919620;28;125047;-64
2021/04/29 07:56:44;;;;;;;27.20;19.25;;;;;;;15.10;45.12;100137.06;4911981;28;123659;-65
2021/04/29 07:59:11;;;;;;;27.70;20.73;;;;;;;15.03;45.29;100125.13;4911887;28;114069;-64
2021/04/29 08:01:44;;;;;;;30.98;21.52;;;;;;;14.97;45.18;100132.66;4906603;28;113571;-64
2021/04/29 08:04:11;;;;;;;28.70;21.25;;;;;;;14.92;45.38;100129.47;4918490;28;124155;-64
2021/04/29 08:06:37;;;;;;;25.20;20.02;;;;;;;14.92;45.73;100134.81;4910566;28;122638;-64
2021/04/29 08:09:05;;;;;;;24.27;20.95;;;;;;;14.97;45.89;100132.66;4898278;28;114408;-64
2021/04/29 08:11:32;;;;;;;31.40;21.27;;;;;;;15.05;46.17;100129.41;4916556;28;114945;-64
2021/04/29 08:13:59;;;;;;;26.73;20.65;;;;;;;15.13;46.08;100136.84;4909655;28;124303;-65
2021/04/29 08:16:25;;;;;;;29.45;20.25;;;;;;;15.19;45.74;100141.69;4913674;28;123488;-64
2021/04/29 08:18:52;;;;;;;27.48;20.33;;;;;;;15.24;45.71;100144.00;4906469;28;113339;-65
2021/04/29 08:21:39;;;;;;;23.58;19.27;;;;;;;15.26;45.62;100142.94;4921366;28;113132;-64
2021/04/29 08:24:06;;;;;;;28.90;20.00;;;;;;;15.28;45.22;100149.00;4913227;28;124621;-64
2021/04/29 08:26:33;;;;;;;27.90;20.25;;;;;;;15.30;45.34;100156.91;4929859;28;124065;-65
2021/04/29 08:29:01;;;;;;;28.95;19.35;;;;;;;15.30;45.27;100160.41;4914542;28;113731;-64
2021/04/29 08:31:27;;;;;;;26.73;20.13;;;;;;;15.28;45.31;100157.00;4910453;28;114184;-64
2021/04/29 08:33:54;;;;;;;27.58;20.05;;;;;;;15.24;45.14;100160.88;4927102;28;124425;-63
2021/04/29 08:36:21;;;;;;;27.15;20.73;;;;;;;15.24;45.26;100166.22;4914457;28;122684;-64
2021/04/29 08:38:48;;;;;;;25.52;20.17;;;;;;;15.20;45.39;100164.75;4930228;28;114670;-64
2021/04/29 08:41:19;;;;;;;29.40;20.17;;;;;;;15.17;45.35;100170.31;4912201;28;113246;-64
2021/04/29 08:43:46;;;;;;;28.50;21.65;;;;;;;15.12;45.42;100172.47;4911905;28;124767;-64
2021/04/29 08:46:13;;;;;;;28.88;21.50;;;;;;;15.08;45.46;100176.31;4926994;28;123901;-64
2021/04/29 08:48:40;;;;;;;29.98;20.15;;;;;;;15.04;45.34;100180.19;4928120;28;114568;-63
2021/04/29 08:51:08;;;;;;;34.55;21.52;;;;;;;14.99;45.43;100184.06;4912531;28;113648;-64
2021/04/29 08:53:36;;;;;;;25.48;20.25;;;;;;;14.96;45.81;100184.28;4910859;28;124724;-65
2021/04/29 08:56:04;;;;;;;28.52;20.88;;;;;;;14.94;46.01;100180.88;4915627;28;122926;-65
2021/04/29 08:58:31;;;;;;;30.42;21.05;;;;;;;14.92;45.90;100188.13;4914977;28;114719;-65
2021/04/29 09:00:59;;;;;;;29.67;21.75;;;;;;;14.91;46.19;100181.09;4909768;28;117033;-65
2021/04/29 09:03:28;;;;;;;29.35;22.23;;;;;;;14.89;46.18;100188.34;4930753;28;123748;-65
2021/04/29 09:05:59;;;;;;;28.95;21.00;;;;;;;14.85;46.15;100186.88;4919406;28;124109;-65
2021/04/29 09:08:28;;;;;;;29.35;22.65;;;;;;;14.85;46.25;100186.88;4905295;28;113311;-65
2021/04/29 09:11:09;;;;;;;32.88;22.15;;;;;;;14.81;46.36;100190.75;4929476;28;114116;-64
2021/04/29 09:13:37;;;;;;;31.88;22.67;;;;;;;14.81;46.25;100189.91;4915964;28;123323;-64
2021/04/29 09:16:10;;;;;;;29.58;22.42;;;;;;;14.82;46.67;100197.75;4903949;28;123418;-64
2021/04/29 09:18:40;;;;;;;33.13;22.42;;;;;;;14.83;46.35;100199.47;4911695;28;114774;-64
2021/04/29 09:21:14;;;;;;;31.58;23.60;;;;;;;14.82;46.57;100208.41;4916158;28;114083;-64
2021/04/29 09:23:48;;;;;;;33.15;23.65;;;;;;;14.78;46.57;100206.94;4912535;28;125276;-63
2021/04/29 09:26:17;;;;;;;34.63;23.50;;;;;;;14.72;46.64;100207.41;4891098;28;123106;-63
2021/04/29 09:28:48;;;;;;;33.70;24.75;;;;;;;14.68;46.98;100216.59;4907342;28;114551;-64
2021/04/29 09:31:24;;;;;;;33.17;24.10;;;;;;;14.62;47.11;100223.22;4902267;28;114104;-64
2021/04/29 09:33:58;;;;;;;33.15;25.60;;;;;;;14.55;47.31;100212.09;4908081;28;123526;-64
2021/04/29 09:36:32;;;;;;;33.88;24.92;;;;;;;14.49;47.69;100223.19;4892053;28;123007;-64
2021/04/29 09:39:06;;;;;;;31.50;25.10;;;;;;;14.45;47.99;100227.06;4890019;28;113261;-64
2021/04/29 09:41:41;;;;;;;36.30;27.17;;;;;;;14.37;48.46;100229.38;4902578;28;114049;-64
2021/04/29 09:44:09;;;;;;;;;;;;;;;14.30;47.12;100222.81;4908619;28;123405;-64
2021/04/29 09:46:47;;;;;;;37.30;25.98;;;;;;;14.27;48.26;100233.69;4916345;28;124374;-64
2021/04/29 09:49:28;;;;;;;37.97;28.83;;;;;;;14.20;48.86;100234.13;4919444;28;115094;-64
2021/04/29 09:51:58;;;;;;;37.33;28.63;;;;;;;14.15;48.92;100230.91;4923174;28;116075;-64
2021/04/29 09:54:27;;;;;;;37.05;27.65;;;;;;;14.12;49.38;100236.44;4932238;23;124607;31
2021/04/29 09:57:04;;;;;;;40.05;30.20;;;;;;;14.11;49.81;100240.09;4891645;28;123618;-73
2021/04/29 09:59:40;;;;;;;41.88;29.38;;;;;;;14.08;50.23;100240.28;4892384;28;114427;-73
2021/04/29 10:02:08;;;;;;;34.88;26.00;;;;;;;14.08;50.24;100234.97;4885271;28;114709;-73
2021/04/29 10:04:38;;;;;;;34.03;25.52;;;;;;;14.08;50.43;100250.94;4890277;28;123856;-73
2021/04/29 10:07:07;;;;;;;34.47;26.20;;;;;;;14.07;50.55;100243.03;4888770;28;124407;-73
2021/04/29 10:09:36;;;;;;;31.40;25.33;;;;;;;14.07;50.72;100243.94;4892029;28;113454;-72
2021/04/29 10:12:07;;;;;;;31.70;24.63;;;;;;;14.06;51.17;100242.19;4906532;28;113814;-72
2021/04/29 10:14:40;;;;;;;32.28;25.48;;;;;;;14.08;51.14;100245.59;4893486;28;123813;-76
2021/04/29 10:17:08;;;;;;;30.35;23.60;;;;;;;14.12;51.26;100246.25;4891323;28;122757;-73
2021/04/29 10:19:41;;;;;;;31.13;23.73;;;;;;;14.16;51.32;100243.25;4897222;28;115083;-73
2021/04/29 10:22:09;;;;;;;30.85;24.85;;;;;;;14.21;51.33;100246.47;4896353;28;114567;-73
2021/04/29 10:24:45;;;;;;;30.58;23.25;;;;;;;14.27;51.47;100247.00;4878528;28;124355;-73
2021/04/29 10:27:15;;;;;;;30.00;24.27;;;;;;;14.34;51.35;100250.94;4896092;28;123903;-73
2021/04/29 10:29:43;;;;;;;30.67;24.40;;;;;;;14.41;51.40;100252.22;4887892;28;113364;-73
2021/04/29 10:32:15;;;;;;;33.03;24.88;;;;;;;14.46;51.53;100255.38;4881250;28;112961;-73
2021/04/29 10:34:44;;;;;;;27.98;23.58;;;;;;;14.49;51.12;100260.50;4887095;28;124519;-74
2021/04/29 10:37:20;;;;;;;31.70;24.15;;;;;;;14.49;51.17;100249.84;4882050;28;123733;-74
2021/04/29 10:39:55;;;;;;;28.05;23.13;;;;;;;14.52;51.34;100257.63;4907479;28;116400;-73
2021/04/29 10:42:24;;;;;;;27.93;22.27;;;;;;;14.56;51.19;100256.44;4882226;28;114443;-74
2021/04/29 10:44:58;;;;;;;22.40;19.35;;;;;;;14.59;51.14;100256.25;4881990;28;123414;-74
2021/04/29 10:47:30;;;;;;;25.20;19.53;;;;;;;14.60;50.92;100265.97;4904220;28;123699;-74
2021/04/29 10:50:16;;;;;;;27.05;20.58;;;;;;;14.58;50.79;100265.22;4877703;28;113861;-73
2021/04/29 10:52:47;;;;;;;29.25;22.50;;;;;;;14.56;50.76;100267.13;4876708;28;113445;-73
2021/04/29 10:55:21;;;;;;;28.20;21.80;;;;;;;14.50;50.67;100272.84;4879090;28;123423;-72
2021/04/29 10:57:48;;;;;;;27.83;22.38;;;;;;;14.46;50.83;100271.38;4877119;28;124324;-70
2021/04/29 11:00:15;;;;;;;24.92;20.70;;;;;;;14.39;50.90;100275.41;4879137;28;113578;-72
2021/04/29 11:02:42;;;;;;;25.58;19.55;;;;;;;14.32;51.01;100284.81;4880150;28;114035;-76
2021/04/29 11:05:22;;;;;;;25.75;18.92;;;;;;;14.21;51.05;100297.06;4895951;28;123863;-74
2021/04/29 11:07:48;;;;;;;23.35;17.90;;;;;;;14.14;50.78;100297.59;4892385;28;124014;-73
2021/04/29 11:10:17;;;;;;;24.52;16.70;;;;;;;14.00;51.01;100303.88;4875135;28;112246;-74